createdAt,value
2023-04-03T00:01:03.396Z,54.29
2023-04-03T00:03:30.078Z,53.88
2023-04-03T00:05:57.119Z,54.90
2023-04-03T00:08:23.755Z,54.42
2023-04-03T00:10:50.913Z,54.27
2023-04-03T00:13:58.256Z,54.48
2023-04-03T00:16:52.920Z,53.51
2023-04-03T00:19:31.604Z,53.99
2023-04-03T00:21:58.268Z,55.01
2023-04-03T00:24:25.012Z,54.11
2023-04-03T00:26:51.716Z,53.93
2023-04-03T00:29:18.301Z,54.47
2023-04-03T00:31:44.914Z,54.94
2023-04-03T00:34:11.524Z,54.61
2023-04-03T00:36:38.502Z,54.85
2023-04-03T00:39:05.578Z,54.97
2023-04-03T00:41:32.935Z,55.14
2023-04-03T00:47:49.846Z,55.27
2023-04-03T00:50:16.706Z,54.82
2023-04-03T00:53:01.822Z,55.17
2023-04-03T00:55:28.702Z,54.84
2023-04-03T00:57:56.907Z,54.98
2023-04-03T01:00:25.114Z,55.08
2023-04-03T01:02:53.104Z,55.09
2023-04-03T01:05:21.551Z,54.94
2023-04-03T01:07:50.481Z,55.35
2023-04-03T01:10:20.532Z,55.36
2023-04-03T01:16:45.529Z,55.57
2023-04-03T01:32:56.126Z,54.62
2023-04-03T01:35:23.224Z,54.60
2023-04-03T01:37:49.986Z,55.38
2023-04-03T01:40:16.683Z,54.71
2023-04-03T01:42:43.443Z,54.65
2023-04-03T01:45:10.802Z,55.10
2023-04-03T01:48:11.614Z,54.52
2023-04-03T01:51:09.522Z,54.53
2023-04-03T01:53:36.120Z,54.13
2023-04-03T01:56:02.743Z,55.00
2023-04-03T01:58:29.287Z,54.75
2023-04-03T02:00:55.953Z,54.19
2023-04-03T02:03:24.607Z,54.96
2023-04-03T02:05:51.263Z,54.58
2023-04-03T02:08:19.063Z,54.95
2023-04-03T02:10:48.281Z,54.56
2023-04-03T02:13:14.836Z,54.29
2023-04-03T02:15:41.610Z,54.07
2023-04-03T02:18:08.621Z,53.65
2023-04-03T02:20:35.573Z,53.91
2023-04-03T02:23:03.374Z,54.65
2023-04-03T02:25:31.960Z,55.24
2023-04-03T02:27:58.534Z,55.12
2023-04-03T02:30:25.205Z,55.03
2023-04-03T02:32:51.877Z,54.92
2023-04-03T02:35:18.635Z,55.51
2023-04-03T02:37:45.346Z,56.23
2023-04-03T02:40:12.554Z,55.33
2023-04-03T02:42:39.257Z,56.05
2023-04-03T02:45:06.596Z,56.13
2023-04-03T02:47:33.219Z,56.00
2023-04-03T02:49:59.763Z,56.15
2023-04-03T02:55:01.615Z,56.41
2023-04-03T02:57:28.248Z,57.08
2023-04-03T02:59:54.848Z,56.68
2023-04-03T03:03:12.662Z,57.14
2023-04-03T03:06:05.494Z,57.17
2023-04-03T03:08:32.300Z,57.51
2023-04-03T03:10:59.274Z,57.05
2023-04-03T03:13:26.008Z,57.08
2023-04-03T03:15:52.844Z,57.15
2023-04-03T03:18:19.784Z,56.93
2023-04-03T03:21:05.581Z,56.66
2023-04-03T03:23:33.243Z,56.52
2023-04-03T03:26:03.208Z,56.74
2023-04-03T03:28:29.813Z,56.86
2023-04-03T03:30:57.445Z,56.56
2023-04-03T03:34:14.477Z,56.04
2023-04-03T03:36:56.709Z,57.28
2023-04-03T03:39:23.828Z,57.44
2023-04-03T03:41:50.956Z,57.43
2023-04-03T03:44:17.543Z,58.16
2023-04-03T03:46:44.176Z,58.02
2023-04-03T03:49:11.022Z,58.10
2023-04-03T03:54:12.987Z,57.79
2023-04-03T03:56:39.726Z,58.18
2023-04-03T03:59:06.678Z,58.29
2023-04-03T04:01:33.633Z,58.81
2023-04-03T04:04:00.423Z,58.58
2023-04-03T04:10:32.753Z,58.32
2023-04-03T04:12:59.305Z,58.30
2023-04-03T04:15:26.941Z,57.46
2023-04-03T04:17:54.463Z,58.71
2023-04-03T04:20:21.582Z,58.12
2023-04-03T04:22:48.302Z,58.00
2023-04-03T04:25:14.948Z,58.32
2023-04-03T04:27:41.968Z,58.01
2023-04-03T04:30:09.519Z,57.81
2023-04-03T04:32:38.229Z,58.16
2023-04-03T04:35:06.036Z,57.18
2023-04-03T04:37:35.789Z,57.07
2023-04-03T04:40:21.126Z,57.23
2023-04-03T04:42:47.941Z,58.08
2023-04-03T04:45:16.008Z,57.59
2023-04-03T04:47:42.997Z,57.37
2023-04-03T04:50:10.396Z,57.22
2023-04-03T04:52:39.791Z,57.16
2023-04-03T04:55:06.926Z,56.89
2023-04-03T04:57:33.526Z,57.17
2023-04-03T05:00:00.181Z,56.43
2023-04-03T05:02:26.934Z,56.30
2023-04-03T05:04:53.754Z,55.37
2023-04-03T05:07:20.462Z,55.67
2023-04-03T05:09:47.257Z,55.22
2023-04-03T05:12:13.862Z,55.12
2023-04-03T05:14:43.099Z,54.68
2023-04-03T05:17:09.744Z,54.67
2023-04-03T05:19:36.281Z,54.28
2023-04-03T05:22:03.691Z,54.64
2023-04-03T05:24:30.264Z,54.21
2023-04-03T05:26:56.819Z,54.61
2023-04-03T05:29:23.606Z,54.78
2023-04-03T05:31:51.403Z,54.69
2023-04-03T05:34:18.497Z,54.45
2023-04-03T05:36:45.423Z,54.25
2023-04-03T05:39:12.298Z,53.76
2023-04-03T05:41:38.845Z,53.73
2023-04-03T05:44:05.533Z,53.27
2023-04-03T05:46:32.173Z,52.86
2023-04-03T05:48:58.765Z,52.16
2023-04-03T05:51:29.618Z,52.04
2023-04-03T05:54:19.216Z,51.99
2023-04-03T05:56:47.971Z,52.23
2023-04-03T05:59:14.560Z,51.64
2023-04-03T06:01:41.570Z,51.77
2023-04-03T06:04:09.993Z,51.37
2023-04-03T06:06:49.251Z,51.40
2023-04-03T06:09:17.147Z,50.44
2023-04-03T06:11:43.829Z,50.14
2023-04-03T06:14:11.152Z,49.63
2023-04-03T06:16:39.716Z,49.30
2023-04-03T06:19:08.719Z,49.44
2023-04-03T06:21:36.756Z,49.97
2023-04-03T06:24:07.267Z,49.19
2023-04-03T06:26:34.855Z,49.23
2023-04-03T06:29:01.596Z,48.86
2023-04-03T06:31:28.254Z,49.25
2023-04-03T06:33:54.821Z,50.03
2023-04-03T06:36:22.173Z,49.62
2023-04-03T06:38:49.469Z,49.22
2023-04-03T06:41:17.413Z,49.70
2023-04-03T06:43:47.162Z,48.87
2023-04-03T06:46:18.611Z,48.36
2023-04-03T06:48:45.898Z,48.72
2023-04-03T06:51:23.400Z,47.42
2023-04-03T06:53:51.595Z,46.77
2023-04-03T06:56:28.915Z,46.58
2023-04-03T06:58:58.053Z,46.67
2023-04-03T07:01:27.275Z,46.00
2023-04-03T07:03:54.657Z,45.36
2023-04-03T07:10:13.534Z,46.02
2023-04-03T07:29:55.605Z,44.32
2023-04-03T07:32:23.555Z,43.92
2023-04-03T07:34:58.326Z,43.24
2023-04-03T07:37:33.770Z,43.24
2023-04-03T07:40:04.530Z,43.67
2023-04-03T07:42:32.275Z,43.78
2023-04-03T07:45:18.726Z,43.10
2023-04-03T07:47:45.480Z,43.23
2023-04-03T07:50:12.452Z,44.36
2023-04-03T07:52:40.610Z,44.93
2023-04-03T09:01:17.857Z,37.76
2023-04-03T09:03:44.570Z,38.08
2023-04-03T09:25:34.413Z,38.89
2023-04-03T09:28:02.891Z,35.59
2023-04-03T09:30:30.293Z,35.26
2023-04-03T09:32:58.583Z,37.51
2023-04-03T09:35:40.567Z,35.95
2023-04-03T09:38:15.149Z,37.19
2023-04-03T09:43:27.461Z,34.64
2023-04-03T09:45:55.160Z,34.42
2023-04-03T09:48:27.564Z,34.57
2023-04-03T09:51:17.395Z,36.52
2023-04-03T09:56:52.975Z,34.15
2023-04-03T09:59:20.754Z,33.36
2023-04-03T10:02:35.459Z,33.02
2023-04-03T10:07:38.193Z,33.19
2023-04-03T10:10:17.973Z,37.59
2023-04-03T10:12:45.360Z,33.77
2023-04-03T10:15:18.111Z,32.26
2023-04-03T10:17:57.768Z,35.69
2023-04-03T10:20:50.547Z,32.48
2023-04-03T10:23:28.858Z,32.50
2023-04-03T10:26:05.271Z,32.96
2023-04-03T10:28:52.036Z,35.66
2023-04-03T10:31:30.980Z,35.60
2023-04-03T10:34:14.613Z,35.22
2023-04-03T10:37:13.928Z,33.79
2023-04-03T10:40:25.515Z,35.96
2023-04-03T10:43:17.921Z,35.89
2023-04-03T10:45:56.856Z,34.19
2023-04-03T10:48:36.347Z,36.51
2023-04-03T10:51:12.311Z,33.91
2023-04-03T10:54:07.634Z,34.68
2023-04-03T10:56:40.557Z,34.36
2023-04-03T10:59:14.394Z,37.02
2023-04-03T11:01:45.130Z,36.79
2023-04-03T11:04:13.799Z,37.07
2023-04-03T11:06:51.894Z,34.81
2023-04-03T11:09:25.338Z,34.24
2023-04-03T11:11:57.052Z,34.18
2023-04-03T11:14:28.859Z,36.08
2023-04-03T11:17:24.524Z,36.64
2023-04-03T11:20:01.433Z,36.39
2023-04-03T11:22:33.185Z,37.13
2023-04-03T11:25:20.997Z,34.43
2023-04-03T11:27:58.766Z,34.29
2023-04-03T11:30:34.633Z,33.93
2023-04-03T11:33:17.279Z,33.09
2023-04-03T11:35:47.162Z,33.72
2023-04-03T11:38:45.606Z,33.86
2023-04-03T11:41:12.721Z,33.95
2023-04-03T11:44:00.396Z,34.39
2023-04-03T11:46:57.939Z,34.53
2023-04-03T11:49:53.567Z,34.19
2023-04-03T11:52:41.506Z,34.26
2023-04-03T11:55:22.238Z,34.34
2023-04-03T11:58:01.706Z,34.16
2023-04-03T12:00:51.622Z,34.11
2023-04-03T12:03:24.123Z,34.75
2023-04-03T12:05:52.514Z,33.54
2023-04-03T12:08:44.276Z,34.64
2023-04-03T12:11:14.088Z,36.14
2023-04-03T12:13:49.787Z,32.86
2023-04-03T12:16:35.167Z,33.16
2023-04-03T12:19:04.423Z,32.98
2023-04-03T12:21:30.921Z,33.13
2023-04-03T12:24:08.181Z,32.74
2023-04-03T12:27:12.554Z,33.37
2023-04-03T12:29:53.168Z,33.12
2023-04-03T12:32:42.297Z,33.29
2023-04-03T12:35:40.132Z,32.85
2023-04-03T12:38:13.161Z,31.61
2023-04-03T12:41:11.866Z,32.13
2023-04-03T12:44:10.421Z,33.08
2023-04-03T12:46:59.306Z,33.23
2023-04-03T12:49:31.514Z,34.32
2023-04-03T12:51:58.587Z,32.66
2023-04-03T13:09:23.095Z,33.50
2023-04-03T13:15:55.559Z,33.04
2023-04-03T13:18:25.222Z,34.74
2023-04-03T13:20:52.581Z,34.16
2023-04-03T13:23:21.966Z,33.66
2023-04-03T13:26:03.574Z,33.47
2023-04-03T13:28:46.364Z,32.99
2023-04-03T13:31:35.406Z,32.42
2023-04-03T13:34:04.049Z,33.60
2023-04-03T13:37:00.840Z,32.34
2023-04-03T13:39:31.173Z,32.08
2023-04-03T13:42:02.668Z,32.85
2023-04-03T13:44:33.965Z,32.18
2023-04-03T13:47:16.675Z,33.16
2023-04-03T13:49:47.486Z,32.90
2023-04-03T13:52:37.027Z,32.02
2023-04-03T13:55:26.291Z,32.31
2023-04-03T13:58:27.360Z,32.70
2023-04-03T14:01:07.259Z,31.94
2023-04-03T14:03:43.872Z,33.14
2023-04-03T14:06:16.623Z,33.37
2023-04-03T14:08:44.217Z,33.01
2023-04-03T14:11:15.759Z,32.96
2023-04-03T14:13:43.109Z,34.14
2023-04-03T14:16:16.171Z,32.66
2023-04-03T14:18:44.002Z,33.17
2023-04-03T14:21:13.937Z,33.10
2023-04-03T14:23:40.593Z,33.01
2023-04-03T14:26:17.313Z,33.06
2023-04-03T14:28:45.392Z,34.26
2023-04-03T14:31:14.148Z,32.96
2023-04-03T14:33:41.216Z,32.79
2023-04-03T14:36:28.081Z,32.62
2023-04-03T14:38:56.401Z,33.41
2023-04-03T14:41:25.898Z,32.33
2023-04-03T14:43:53.526Z,32.98
2023-04-03T14:46:56.383Z,32.57
2023-04-03T14:49:29.167Z,31.69
2023-04-03T14:51:57.371Z,32.19
2023-04-03T14:54:29.111Z,31.72
2023-04-03T14:56:58.006Z,32.13
2023-04-03T14:59:26.153Z,32.35
2023-04-03T15:01:52.911Z,32.37
2023-04-03T15:04:21.854Z,32.48
2023-04-03T15:06:49.920Z,32.92
2023-04-03T15:09:26.059Z,33.47
2023-04-03T15:11:55.592Z,33.69
2023-04-03T15:14:35.932Z,33.67
2023-04-03T15:17:06.310Z,33.51
2023-04-03T15:19:52.635Z,33.42
2023-04-03T15:22:20.518Z,33.82
2023-04-03T15:24:47.486Z,33.88
2023-04-03T15:27:14.732Z,34.86
2023-04-03T15:29:45.559Z,35.10
2023-04-03T15:32:12.923Z,34.63
2023-04-03T15:34:43.785Z,35.03
2023-04-03T15:37:12.608Z,35.36
2023-04-03T15:39:39.176Z,36.46
2023-04-03T15:42:07.348Z,36.45
2023-04-03T15:44:35.648Z,35.89
2023-04-03T15:47:03.422Z,36.36
2023-04-03T15:49:31.714Z,36.35
2023-04-03T15:51:58.378Z,36.93
2023-04-03T15:54:26.328Z,37.34
2023-04-03T15:56:54.209Z,36.96
2023-04-03T15:59:20.836Z,36.48
2023-04-03T16:01:47.694Z,36.70
2023-04-03T16:04:15.670Z,36.23
2023-04-03T16:06:43.800Z,37.18
2023-04-03T16:09:11.060Z,37.51
2023-04-03T16:11:40.827Z,36.54
2023-04-03T16:14:08.491Z,37.13
2023-04-03T16:16:36.118Z,37.29
2023-04-03T16:19:03.489Z,36.73
2023-04-03T16:21:30.358Z,37.33
2023-04-03T16:24:00.771Z,36.69
2023-04-03T16:26:27.699Z,36.94
2023-04-03T16:28:54.967Z,37.30
2023-04-03T16:31:22.619Z,36.96
2023-04-03T16:33:49.574Z,37.05
2023-04-03T16:36:16.685Z,36.80
2023-04-03T16:38:43.323Z,36.45
2023-04-03T16:41:09.899Z,36.83
2023-04-03T16:43:36.836Z,37.19
2023-04-03T16:46:06.600Z,36.62
2023-04-03T16:48:33.253Z,36.36
2023-04-03T16:50:59.844Z,36.94
2023-04-03T16:53:27.812Z,36.68
2023-04-03T16:55:54.944Z,36.68
2023-04-03T16:58:23.486Z,36.74
2023-04-03T17:00:51.705Z,36.52
2023-04-03T17:03:18.342Z,36.35
2023-04-03T17:05:48.326Z,36.75
2023-04-03T17:08:15.062Z,36.77
2023-04-03T17:10:41.932Z,38.09
2023-04-03T17:13:10.560Z,38.29
2023-04-03T17:15:37.519Z,38.23
2023-04-03T17:18:16.625Z,37.26
2023-04-03T17:20:43.288Z,37.67
2023-04-03T17:23:09.972Z,37.66
2023-04-03T17:25:36.632Z,37.91
2023-04-03T17:28:03.417Z,37.63
2023-04-03T17:30:30.007Z,38.84
2023-04-03T17:32:57.081Z,37.91
2023-04-03T17:35:24.042Z,38.43
2023-04-03T17:37:50.801Z,38.49
2023-04-03T17:40:37.669Z,37.76
2023-04-03T17:43:04.290Z,38.43
2023-04-03T17:45:31.013Z,37.87
2023-04-03T17:47:57.611Z,38.86
2023-04-03T17:50:39.344Z,38.83
2023-04-03T17:53:37.096Z,38.60
2023-04-03T17:56:33.446Z,38.63
2023-04-03T17:59:00.174Z,38.36
2023-04-03T18:01:32.945Z,37.98
2023-04-03T18:04:03.252Z,38.75
2023-04-03T18:06:40.095Z,39.18
2023-04-03T18:09:19.729Z,38.94
2023-04-03T18:11:48.626Z,38.98
2023-04-03T18:14:19.664Z,38.96
2023-04-03T18:16:46.292Z,39.46
2023-04-03T18:19:22.761Z,39.51
2023-04-03T18:21:55.469Z,39.23
2023-04-03T18:32:48.587Z,39.29
2023-04-03T18:35:15.254Z,39.72
2023-04-03T18:48:41.256Z,39.43
2023-04-03T18:51:16.100Z,39.11
2023-04-03T18:53:48.814Z,38.78
2023-04-03T18:56:16.367Z,38.85
2023-04-03T19:01:45.851Z,38.25
2023-04-03T19:04:12.755Z,38.57
2023-04-03T19:09:15.109Z,38.40
2023-04-03T19:11:41.763Z,39.00
2023-04-03T19:17:12.906Z,39.16
2023-04-03T19:20:28.799Z,38.27
2023-04-03T19:46:51.438Z,36.53
2023-04-03T19:53:35.423Z,35.86
2023-04-03T19:56:02.083Z,36.59
2023-04-03T19:58:30.013Z,36.10
2023-04-03T20:00:58.107Z,36.73
2023-04-03T20:03:25.338Z,36.29
2023-04-03T20:05:54.180Z,36.45
2023-04-03T20:08:21.009Z,37.28
2023-04-03T20:10:47.669Z,37.25
2023-04-03T20:13:14.672Z,37.35
2023-04-03T20:15:43.720Z,37.18
2023-04-03T20:18:20.792Z,37.05
2023-04-03T20:20:55.234Z,37.28
2023-04-03T20:26:23.694Z,37.69
2023-04-03T20:28:52.305Z,37.66
2023-04-03T20:31:19.664Z,37.45
2023-04-03T20:33:47.804Z,37.40
2023-04-03T20:36:15.827Z,37.80
2023-04-03T20:39:18.997Z,37.31
2023-04-03T20:41:46.886Z,37.63
2023-04-03T20:44:19.845Z,37.38
2023-04-03T20:46:52.964Z,37.49
2023-04-03T20:49:21.359Z,36.27
2023-04-03T20:51:48.328Z,37.07
2023-04-03T20:54:24.137Z,36.52
2023-04-03T20:56:51.407Z,36.57
2023-04-03T20:59:18.721Z,36.30
2023-04-03T21:01:46.963Z,36.11
2023-04-03T21:04:30.456Z,36.35
2023-04-03T21:07:34.887Z,36.52
2023-04-03T21:10:40.107Z,36.79
2023-04-03T21:13:44.108Z,37.44
2023-04-03T21:16:10.941Z,36.81
2023-04-03T21:18:52.490Z,36.48
2023-04-03T21:21:26.176Z,36.76
2023-04-03T21:24:01.126Z,36.74
2023-04-03T21:26:27.894Z,36.51
2023-04-03T21:28:54.653Z,36.48
2023-04-03T21:31:21.979Z,35.39
2023-04-03T21:33:49.118Z,35.80
2023-04-03T21:36:28.299Z,35.05
2023-04-03T21:39:23.233Z,35.54
2023-04-03T21:41:51.686Z,35.05
2023-04-03T21:44:19.268Z,35.71
2023-04-03T21:46:54.062Z,35.62
2023-04-03T21:51:56.031Z,35.61
2023-04-03T21:54:22.694Z,35.50
2023-04-03T21:56:49.631Z,35.76
2023-04-03T21:59:16.772Z,35.58
2023-04-03T22:01:43.575Z,35.53
2023-04-03T22:04:11.576Z,36.20
2023-04-03T22:06:38.294Z,36.35
2023-04-03T22:09:04.957Z,35.74
2023-04-03T22:11:35.065Z,35.74
2023-04-03T22:14:05.025Z,36.53
2023-04-03T22:16:37.866Z,35.54
2023-04-03T22:19:04.459Z,35.74
2023-04-03T22:21:32.656Z,35.35
2023-04-03T22:26:35.222Z,35.37
2023-04-03T22:29:01.816Z,35.83
2023-04-03T22:31:28.506Z,35.73
2023-04-03T22:38:04.032Z,36.20
2023-04-03T22:40:30.597Z,35.50
2023-04-03T22:42:57.445Z,35.40
2023-04-03T22:45:24.004Z,35.45
2023-04-03T22:47:50.651Z,35.31
2023-04-03T22:50:17.244Z,35.39
2023-04-03T22:52:43.799Z,35.13
2023-04-03T22:55:19.340Z,35.26
2023-04-03T22:57:49.454Z,35.42
2023-04-03T23:00:16.496Z,36.09
2023-04-03T23:02:43.463Z,36.10
2023-04-03T23:05:30.976Z,35.24
2023-04-03T23:08:15.922Z,35.57
2023-04-03T23:10:42.709Z,36.04
2023-04-03T23:13:09.297Z,35.41
2023-04-03T23:15:35.868Z,36.14
2023-04-03T23:18:02.458Z,35.96
2023-04-03T23:20:29.020Z,36.40
2023-04-03T23:22:55.576Z,36.35
2023-04-03T23:25:22.313Z,36.94
2023-04-03T23:27:56.201Z,36.48
2023-04-03T23:30:22.815Z,36.90
2023-04-03T23:32:49.474Z,37.08
2023-04-03T23:35:16.685Z,36.98
2023-04-03T23:37:52.278Z,36.71
2023-04-03T23:40:18.826Z,36.98
2023-04-03T23:42:45.366Z,37.04
2023-04-03T23:45:11.925Z,36.95
2023-04-03T23:47:38.585Z,37.09
2023-04-03T23:50:14.202Z,36.91
